Time;durP1;ratioP1;P1;durP2;ratioP2;P2;SDS_P1;SDS_P2;PMS_P1;PMS_P2;Temp;Humidity;BMP_temperature;BMP_pressure;BME280_temperature;BME280_humidity;BME280_pressure;Samples;Min_cycle;Max_cycle;Signal;HPM_P1;HPM_P2
2022/04/03 00:00:09;;;;;;;3.97;2.88;;;;;;;;;;5028676;28;20520;-48
2022/04/03 00:02:35;;;;;;;3.28;2.38;;;;;;;;;;5028248;28;20037;-46
2022/04/03 00:05:01;;;;;;;3.20;2.90;;;;;;;;;;5028303;28;20026;-46
2022/04/03 00:07:28;;;;;;;2.78;2.47;;;;;;;;;;5028257;28;20217;-48
2022/04/03 00:09:54;;;;;;;3.03;2.15;;;;;;;;;;5028086;28;20041;-47
2022/04/03 00:12:20;;;;;;;3.67;2.88;;;;;;;;;;5028314;28;20032;-45
2022/04/03 00:14:46;;;;;;;2.50;2.05;;;;;;;;;;5028997;28;20041;-50
2022/04/03 00:17:13;;;;;;;3.22;2.65;;;;;;;;;;5027919;28;20030;-50
2022/04/03 00:19:39;;;;;;;3.10;2.55;;;;;;;;;;5027713;28;20291;-48
2022/04/03 00:22:05;;;;;;;2.35;2.13;;;;;;;;;;5028131;28;20505;-47
2022/04/03 00:24:31;;;;;;;3.22;2.30;;;;;;;;;;5027666;28;20488;-49
2022/04/03 00:26:58;;;;;;;2.47;2.28;;;;;;;;;;5036606;28;20028;-49
2022/04/03 00:29:24;;;;;;;3.20;2.70;;;;;;;;;;5030939;28;20548;-47
2022/04/03 00:31:50;;;;;;;3.22;2.42;;;;;;;;;;5028034;28;20037;-46
2022/04/03 00:34:16;;;;;;;3.25;2.45;;;;;;;;;;5028010;28;20037;-46
2022/04/03 00:36:42;;;;;;;4.05;2.67;;;;;;;;;;5027859;28;20025;-49
2022/04/03 00:39:08;;;;;;;3.38;2.63;;;;;;;;;;5027408;28;20041;-48
2022/04/03 00:41:35;;;;;;;5.05;3.88;;;;;;;;;;5027751;28;20509;-48
2022/04/03 00:44:01;;;;;;;5.75;4.07;;;;;;;;;;5027732;28;20029;-49
2022/04/03 00:46:29;;;;;;;4.97;3.70;;;;;;;;;;5027503;28;20497;-50
2022/04/03 00:48:55;;;;;;;5.95;3.53;;;;;;;;;;5027014;28;20432;-47
2022/04/03 00:51:21;;;;;;;4.03;3.42;;;;;;;;;;5027169;28;20428;-47
2022/04/03 00:53:47;;;;;;;6.18;4.05;;;;;;;;;;5028416;28;20124;-47
2022/04/03 00:56:14;;;;;;;4.88;3.80;;;;;;;;;;5027533;28;20111;-49
2022/04/03 00:58:40;;;;;;;4.43;3.58;;;;;;;;;;5027373;28;20460;-48
2022/04/03 01:01:07;;;;;;;5.13;3.80;;;;;;;;;;5027337;28;20025;-47
2022/04/03 01:03:33;;;;;;;4.65;3.53;;;;;;;;;;5026878;28;20036;-49
2022/04/03 01:05:59;;;;;;;4.38;3.47;;;;;;;;;;5027273;28;20022;-50
2022/04/03 01:08:25;;;;;;;5.32;3.85;;;;;;;;;;5026880;28;20084;-48
2022/04/03 01:10:52;;;;;;;4.75;3.72;;;;;;;;;;5027462;28;20033;-47
2022/04/03 01:13:18;;;;;;;3.83;3.40;;;;;;;;;;5027515;28;20037;-49
2022/04/03 01:15:59;;;;;;;4.13;3.38;;;;;;;;;;5027714;28;20480;-50
2022/04/03 01:18:25;;;;;;;4.78;3.55;;;;;;;;;;5027400;28;20033;-49
2022/04/03 01:20:52;;;;;;;5.50;4.07;;;;;;;;;;5033796;28;20065;-49
2022/04/03 01:23:19;;;;;;;4.40;3.47;;;;;;;;;;5046952;28;20032;-46
2022/04/03 01:25:46;;;;;;;4.88;3.50;;;;;;;;;;5047377;28;20025;-49
2022/04/03 01:28:12;;;;;;;4.18;3.38;;;;;;;;;;5046640;28;20029;-46
2022/04/03 01:30:38;;;;;;;4.55;3.80;;;;;;;;;;5044808;28;20033;-49
2022/04/03 01:33:05;;;;;;;5.35;3.83;;;;;;;;;;5043310;28;20039;-49
2022/04/03 01:35:31;;;;;;;4.55;3.40;;;;;;;;;;5046998;28;20032;-46
2022/04/03 01:37:57;;;;;;;4.47;3.50;;;;;;;;;;5044465;28;20393;-47
2022/04/03 01:40:23;;;;;;;5.20;3.90;;;;;;;;;;5026459;28;20120;-47
2022/04/03 01:42:50;;;;;;;5.70;4.00;;;;;;;;;;5027052;28;20042;-47
2022/04/03 01:45:16;;;;;;;3.80;3.42;;;;;;;;;;5026480;28;20631;-47
2022/04/03 01:47:42;;;;;;;4.88;3.67;;;;;;;;;;5026400;28;20044;-49
2022/04/03 01:50:09;;;;;;;4.35;3.45;;;;;;;;;;5026262;28;20061;-48
2022/04/03 01:52:35;;;;;;;5.93;4.18;;;;;;;;;;5026877;28;20087;-50
2022/04/03 01:55:01;;;;;;;6.35;4.88;;;;;;;;;;5026669;28;20029;-49
2022/04/03 01:57:27;;;;;;;5.72;4.55;;;;;;;;;;5026389;28;20022;-48
2022/04/03 01:59:53;;;;;;;6.07;4.57;;;;;;;;;;5024804;28;20465;-46
2022/04/03 02:02:20;;;;;;;5.50;3.88;;;;;;;;;;5039818;28;20540;-49
2022/04/03 02:04:46;;;;;;;5.43;3.85;;;;;;;;;;5044668;28;20188;-48
2022/04/03 02:07:12;;;;;;;6.05;5.10;;;;;;;;;;5046105;28;20472;-48
2022/04/03 02:09:38;;;;;;;5.68;4.35;;;;;;;;;;5045748;28;20436;-48
2022/04/03 02:12:05;;;;;;;6.53;4.97;;;;;;;;;;5032357;28;20724;-48
2022/04/03 02:14:31;;;;;;;4.45;3.67;;;;;;;;;;5051674;28;20443;-49
2022/04/03 02:16:58;;;;;;;5.50;4.47;;;;;;;;;;5037450;28;20037;-48
2022/04/03 02:19:24;;;;;;;5.47;4.47;;;;;;;;;;5035644;28;20033;-46
2022/04/03 02:21:50;;;;;;;6.75;4.15;;;;;;;;;;5041184;28;20408;-48
2022/04/03 02:24:18;;;;;;;5.13;4.30;;;;;;;;;;5029990;28;20124;-50
2022/04/03 02:26:44;;;;;;;6.60;5.22;;;;;;;;;;5029771;28;20029;-45
2022/04/03 02:29:11;;;;;;;6.32;4.63;;;;;;;;;;5030421;28;20036;-50
2022/04/03 02:31:37;;;;;;;5.78;3.95;;;;;;;;;;5028235;28;20042;-49
2022/04/03 02:34:05;;;;;;;5.53;4.00;;;;;;;;;;5029238;28;20033;-47
2022/04/03 02:36:32;;;;;;;4.43;3.83;;;;;;;;;;5027094;28;20029;-46
2022/04/03 02:38:58;;;;;;;4.85;3.75;;;;;;;;;;5030351;28;20078;-49
2022/04/03 02:41:24;;;;;;;4.78;3.90;;;;;;;;;;5027843;28;20454;-47
2022/04/03 02:43:51;;;;;;;4.18;3.55;;;;;;;;;;5035711;28;20048;-50
2022/04/03 02:46:17;;;;;;;5.93;4.57;;;;;;;;;;5026662;28;20047;-49
2022/04/03 02:48:43;;;;;;;6.50;4.40;;;;;;;;;;5027428;28;20060;-47
2022/04/03 02:51:10;;;;;;;4.32;3.72;;;;;;;;;;5031628;28;20052;-48
2022/04/03 02:53:36;;;;;;;5.30;4.18;;;;;;;;;;5033856;28;20041;-49
2022/04/03 02:56:02;;;;;;;6.40;4.75;;;;;;;;;;5030711;28;20037;-49
2022/04/03 02:58:28;;;;;;;5.13;4.10;;;;;;;;;;5023795;28;20037;-50
2022/04/03 03:00:54;;;;;;;5.22;4.00;;;;;;;;;;5024065;28;20060;-49
2022/04/03 03:03:21;;;;;;;5.60;4.32;;;;;;;;;;5025554;28;20573;-47
2022/04/03 03:05:47;;;;;;;5.45;3.97;;;;;;;;;;5025447;28;20025;-46
2022/04/03 03:08:13;;;;;;;6.25;3.83;;;;;;;;;;5024731;28;20121;-50
2022/04/03 03:10:39;;;;;;;5.28;4.68;;;;;;;;;;5025003;28;20030;-49
2022/04/03 03:13:06;;;;;;;6.22;4.70;;;;;;;;;;5024861;28;20037;-48
2022/04/03 03:15:32;;;;;;;6.65;4.53;;;;;;;;;;5025027;28;20408;-50
2022/04/03 03:17:58;;;;;;;5.10;4.20;;;;;;;;;;5025049;28;20188;-49
2022/04/03 03:20:24;;;;;;;7.03;5.43;;;;;;;;;;5024964;28;20025;-46
2022/04/03 03:22:50;;;;;;;5.28;4.57;;;;;;;;;;5025248;28;20432;-47
2022/04/03 03:25:16;;;;;;;7.30;5.20;;;;;;;;;;5024543;28;20026;-46
2022/04/03 03:27:43;;;;;;;7.32;5.05;;;;;;;;;;5024593;28;20586;-47
2022/04/03 03:30:11;;;;;;;9.32;6.05;;;;;;;;;;5023989;28;20028;-48
2022/04/03 03:32:37;;;;;;;9.43;6.22;;;;;;;;;;5029229;28;20037;-48
2022/04/03 03:35:04;;;;;;;8.63;6.20;;;;;;;;;;5045262;28;20238;-46
2022/04/03 03:37:30;;;;;;;11.30;6.60;;;;;;;;;;5036485;28;20036;-49
2022/04/03 03:39:57;;;;;;;11.63;6.63;;;;;;;;;;5024439;28;20115;-49
2022/04/03 03:42:23;;;;;;;9.63;6.05;;;;;;;;;;5024298;28;20132;-45
2022/04/03 03:44:51;;;;;;;10.68;6.28;;;;;;;;;;5024912;28;20567;-47
2022/04/03 03:47:17;;;;;;;8.25;5.47;;;;;;;;;;5024309;28;20036;-48
2022/04/03 03:49:43;;;;;;;9.27;6.30;;;;;;;;;;5024373;28;20648;-49
2022/04/03 03:52:10;;;;;;;8.70;5.95;;;;;;;;;;5024270;28;20032;-47
2022/04/03 03:54:36;;;;;;;9.27;5.60;;;;;;;;;;5024211;28;20044;-47
2022/04/03 03:57:03;;;;;;;9.07;6.03;;;;;;;;;;5024501;28;20030;-46
2022/04/03 03:59:29;;;;;;;10.15;6.32;;;;;;;;;;5024354;28;20084;-48
2022/04/03 04:01:56;;;;;;;9.60;5.53;;;;;;;;;;5024270;28;20484;-47
2022/04/03 04:04:22;;;;;;;10.45;6.63;;;;;;;;;;5024693;28;20026;-49
2022/04/03 04:06:48;;;;;;;11.88;7.53;;;;;;;;;;5024714;28;20104;-48
2022/04/03 04:09:15;;;;;;;12.10;8.02;;;;;;;;;;5024247;28;20030;-50
2022/04/03 04:11:41;;;;;;;10.95;7.15;;;;;;;;;;5024316;28;20061;-49
2022/04/03 04:14:07;;;;;;;11.00;7.20;;;;;;;;;;5024360;28;20512;-46
2022/04/03 04:16:33;;;;;;;10.48;6.68;;;;;;;;;;5024293;28;20029;-50
2022/04/03 04:18:59;;;;;;;10.02;6.55;;;;;;;;;;5024467;28;20057;-46
2022/04/03 04:21:25;;;;;;;10.63;6.93;;;;;;;;;;5024163;28;20500;-46
2022/04/03 04:23:52;;;;;;;12.93;7.35;;;;;;;;;;5024729;28;20029;-46
2022/04/03 04:26:19;;;;;;;11.90;7.18;;;;;;;;;;5024264;28;20033;-50
2022/04/03 04:28:48;;;;;;;12.43;7.65;;;;;;;;;;5024463;28;20057;-51
2022/04/03 04:31:14;;;;;;;12.48;7.57;;;;;;;;;;5024010;28;20025;-47
2022/04/03 04:33:40;;;;;;;12.70;8.40;;;;;;;;;;5024273;28;20041;-50
2022/04/03 04:36:07;;;;;;;11.52;7.22;;;;;;;;;;5024252;28;20036;-49
2022/04/03 04:38:33;;;;;;;11.40;7.38;;;;;;;;;;5024051;28;20033;-49
2022/04/03 04:40:59;;;;;;;9.43;6.50;;;;;;;;;;5025249;28;20262;-46
2022/04/03 04:43:25;;;;;;;9.82;7.30;;;;;;;;;;5027701;28;20060;-47
2022/04/03 04:45:51;;;;;;;9.30;6.53;;;;;;;;;;5028236;28;20037;-48
2022/04/03 04:48:18;;;;;;;9.18;6.93;;;;;;;;;;5027513;28;20068;-47
2022/04/03 04:50:44;;;;;;;9.57;7.25;;;;;;;;;;5027595;28;20064;-47
2022/04/03 04:53:10;;;;;;;9.77;6.85;;;;;;;;;;5027320;28;20510;-45
2022/04/03 04:55:36;;;;;;;9.35;6.90;;;;;;;;;;5027784;28;20033;-47
2022/04/03 04:58:02;;;;;;;8.05;6.20;;;;;;;;;;5027721;28;20496;-47
2022/04/03 05:00:30;;;;;;;8.13;5.75;;;;;;;;;;5027093;28;20574;-46
2022/04/03 05:02:57;;;;;;;6.78;5.38;;;;;;;;;;5027331;28;20243;-47
2022/04/03 05:05:24;;;;;;;7.88;5.78;;;;;;;;;;5027450;28;20584;-45
2022/04/03 05:07:52;;;;;;;6.80;5.43;;;;;;;;;;5028017;28;20030;-46
2022/04/03 05:10:18;;;;;;;8.68;6.45;;;;;;;;;;5027275;28;20043;-49
2022/04/03 05:12:44;;;;;;;8.65;6.20;;;;;;;;;;5027360;28;20488;-49
2022/04/03 05:15:11;;;;;;;7.70;5.63;;;;;;;;;;5026567;28;20025;-46
2022/04/03 05:17:41;;;;;;;6.85;5.18;;;;;;;;;;5027384;28;20109;-47
2022/04/03 05:20:08;;;;;;;7.68;5.38;;;;;;;;;;5027173;28;20025;-48
2022/04/03 05:22:34;;;;;;;8.07;5.47;;;;;;;;;;5027118;28;20512;-46
2022/04/03 05:25:03;;;;;;;9.02;5.85;;;;;;;;;;5026845;28;20084;-47
2022/04/03 05:27:30;;;;;;;9.15;6.32;;;;;;;;;;5026711;28;20412;-47
2022/04/03 05:29:56;;;;;;;8.13;5.93;;;;;;;;;;5026683;28;20033;-46
2022/04/03 05:32:29;;;;;;;8.63;6.25;;;;;;;;;;5027394;28;20105;-47
2022/04/03 05:34:56;;;;;;;7.73;5.33;;;;;;;;;;5027020;28;20191;-46
2022/04/03 05:37:23;;;;;;;7.65;5.72;;;;;;;;;;5026668;28;20040;-46
2022/04/03 05:39:51;;;;;;;12.85;7.05;;;;;;;;;;5027144;28;20460;-47
2022/04/03 05:42:17;;;;;;;13.13;6.72;;;;;;;;;;5026498;28;20037;-49
2022/04/03 05:44:43;;;;;;;13.07;6.55;;;;;;;;;;5026537;28;20040;-47
2022/04/03 05:47:10;;;;;;;11.52;7.00;;;;;;;;;;5029537;28;20417;-46
2022/04/03 05:49:37;;;;;;;11.15;6.57;;;;;;;;;;5039085;28;20022;-47
2022/04/03 05:52:03;;;;;;;10.27;6.70;;;;;;;;;;5027523;28;20396;-48
2022/04/03 05:54:29;;;;;;;13.32;7.60;;;;;;;;;;5027043;28;20115;-46
2022/04/03 05:56:55;;;;;;;12.70;7.28;;;;;;;;;;5044371;28;20032;-47
2022/04/03 05:59:21;;;;;;;14.63;8.45;;;;;;;;;;5046651;28;20052;-49
2022/04/03 06:01:48;;;;;;;11.85;6.95;;;;;;;;;;5046777;28;20021;-49
2022/04/03 06:04:15;;;;;;;11.35;6.90;;;;;;;;;;5046332;28;20479;-50
2022/04/03 06:06:41;;;;;;;11.18;7.57;;;;;;;;;;5046605;28;20033;-49
2022/04/03 06:09:08;;;;;;;11.23;7.10;;;;;;;;;;5045903;28;20029;-46
2022/04/03 06:11:34;;;;;;;8.25;6.15;;;;;;;;;;5046406;28;20100;-50
2022/04/03 06:14:00;;;;;;;8.18;6.10;;;;;;;;;;5046333;28;20029;-46
2022/04/03 06:16:27;;;;;;;8.63;6.20;;;;;;;;;;5046116;28;20040;-49
2022/04/03 06:18:54;;;;;;;7.68;5.47;;;;;;;;;;5046386;28;20053;-45
2022/04/03 06:21:21;;;;;;;7.72;5.70;;;;;;;;;;5046654;28;20087;-47
2022/04/03 06:23:48;;;;;;;7.70;5.75;;;;;;;;;;5046009;28;20043;-48
2022/04/03 06:26:14;;;;;;;8.07;5.78;;;;;;;;;;5046002;28;20029;-49
2022/04/03 06:28:42;;;;;;;7.70;5.63;;;;;;;;;;5045916;28;20049;-49
2022/04/03 06:31:08;;;;;;;7.82;5.70;;;;;;;;;;5039934;28;20024;-48
2022/04/03 06:33:36;;;;;;;7.90;5.55;;;;;;;;;;5039054;28;20029;-47
2022/04/03 06:36:03;;;;;;;7.28;5.30;;;;;;;;;;5035965;28;20064;-47
2022/04/03 06:38:29;;;;;;;7.90;5.65;;;;;;;;;;5035524;28;20063;-48
2022/04/03 06:40:57;;;;;;;6.60;5.25;;;;;;;;;;5027390;28;20025;-49
2022/04/03 06:43:25;;;;;;;7.43;5.72;;;;;;;;;;5026920;28;20029;-50
2022/04/03 06:45:52;;;;;;;7.55;5.47;;;;;;;;;;5028083;28;20546;-50
2022/04/03 06:48:19;;;;;;;7.45;5.50;;;;;;;;;;5027674;28;20021;-49
2022/04/03 06:50:45;;;;;;;8.07;5.60;;;;;;;;;;5044806;28;20108;-49
2022/04/03 06:53:12;;;;;;;8.05;5.53;;;;;;;;;;5046279;28;20438;-50
2022/04/03 06:55:38;;;;;;;8.15;5.72;;;;;;;;;;5046717;28;20017;-47
2022/04/03 06:58:05;;;;;;;8.52;6.20;;;;;;;;;;5046509;28;20033;-49
2022/04/03 07:00:31;;;;;;;8.93;6.28;;;;;;;;;;5046322;28;20553;-47
2022/04/03 07:02:57;;;;;;;7.60;5.28;;;;;;;;;;5034246;28;20026;-50
2022/04/03 07:05:24;;;;;;;8.90;6.35;;;;;;;;;;5026826;28;20060;-48
2022/04/03 07:07:54;;;;;;;7.28;5.63;;;;;;;;;;5029378;28;20504;-47
2022/04/03 07:10:21;;;;;;;7.88;5.97;;;;;;;;;;5027208;28;20040;-47
2022/04/03 07:12:47;;;;;;;8.98;6.55;;;;;;;;;;5026706;28;20495;-47
2022/04/03 07:15:13;;;;;;;8.25;5.60;;;;;;;;;;5026471;28;20141;-47
2022/04/03 07:17:40;;;;;;;7.75;5.80;;;;;;;;;;5026688;28;20053;-49
2022/04/03 07:20:07;;;;;;;7.93;5.80;;;;;;;;;;5027967;28;20021;-47
2022/04/03 07:22:33;;;;;;;7.35;5.78;;;;;;;;;;5026525;28;20104;-47
2022/04/03 07:24:59;;;;;;;8.13;6.03;;;;;;;;;;5025165;28;20048;-48
2022/04/03 07:27:27;;;;;;;7.82;5.68;;;;;;;;;;5024681;28;20025;-45
2022/04/03 07:29:54;;;;;;;6.68;5.63;;;;;;;;;;5025016;28;20063;-46
2022/04/03 07:32:20;;;;;;;8.68;5.90;;;;;;;;;;5025601;28;20034;-46
2022/04/03 07:34:46;;;;;;;6.10;5.10;;;;;;;;;;5025087;28;20503;-47
2022/04/03 07:37:12;;;;;;;7.30;5.50;;;;;;;;;;5024515;28;20033;-46
2022/04/03 07:39:38;;;;;;;6.20;4.90;;;;;;;;;;5025055;28;20033;-47
2022/04/03 07:42:05;;;;;;;6.68;5.05;;;;;;;;;;5024928;28;20036;-47
2022/04/03 07:44:31;;;;;;;8.57;6.40;;;;;;;;;;5030567;28;20026;-47
2022/04/03 07:46:57;;;;;;;8.82;6.38;;;;;;;;;;5036297;28;20033;-46
2022/04/03 07:49:23;;;;;;;7.82;5.63;;;;;;;;;;5038046;28;20111;-45
2022/04/03 07:51:50;;;;;;;7.45;5.32;;;;;;;;;;5039634;28;20098;-46
2022/04/03 07:54:17;;;;;;;8.32;6.03;;;;;;;;;;5024832;28;20065;-49
2022/04/03 07:56:43;;;;;;;8.63;5.97;;;;;;;;;;5034898;28;20045;-48
2022/04/03 07:59:09;;;;;;;10.20;6.30;;;;;;;;;;5045850;28;20037;-46
2022/04/03 08:01:35;;;;;;;8.98;6.20;;;;;;;;;;5045768;28;20496;-48
2022/04/03 08:04:02;;;;;;;12.40;7.30;;;;;;;;;;5044890;28;20029;-51
2022/04/03 08:06:28;;;;;;;10.38;6.53;;;;;;;;;;5045682;28;20466;-49
2022/04/03 08:08:54;;;;;;;10.18;6.53;;;;;;;;;;5045562;28;20044;-49
2022/04/03 08:11:20;;;;;;;10.45;6.57;;;;;;;;;;5045599;28;20496;-50
2022/04/03 08:13:47;;;;;;;9.38;5.97;;;;;;;;;;5045825;28;20062;-46
2022/04/03 08:16:15;;;;;;;9.63;5.32;;;;;;;;;;5029079;28;20029;-48
2022/04/03 08:18:41;;;;;;;7.55;5.15;;;;;;;;;;5029928;28;20512;-47
2022/04/03 08:21:07;;;;;;;7.75;5.82;;;;;;;;;;5029670;28;20033;-47
2022/04/03 08:23:34;;;;;;;10.32;6.82;;;;;;;;;;5029193;28;20550;-48
2022/04/03 08:26:00;;;;;;;8.63;6.13;;;;;;;;;;5029494;28;20049;-46
2022/04/03 08:28:28;;;;;;;9.85;6.20;;;;;;;;;;5032558;28;20025;-47
2022/04/03 08:30:55;;;;;;;8.65;5.70;;;;;;;;;;5047916;28;20538;-46
2022/04/03 08:33:22;;;;;;;11.10;6.68;;;;;;;;;;5049277;28;20071;-48
2022/04/03 08:35:50;;;;;;;8.80;6.13;;;;;;;;;;5049561;28;20037;-48
2022/04/03 08:38:17;;;;;;;9.57;5.95;;;;;;;;;;5049347;28;20028;-49
2022/04/03 08:40:43;;;;;;;10.70;6.30;;;;;;;;;;5049514;28;20033;-49
2022/04/03 08:43:10;;;;;;;9.10;6.07;;;;;;;;;;5048958;28;20120;-47
2022/04/03 08:45:36;;;;;;;8.52;5.70;;;;;;;;;;5032793;28;20432;-47
2022/04/03 08:48:03;;;;;;;9.70;5.55;;;;;;;;;;5029315;28;20017;-50
2022/04/03 08:50:32;;;;;;;9.32;6.20;;;;;;;;;;5032287;28;20048;-46
2022/04/03 08:53:00;;;;;;;8.30;4.72;;;;;;;;;;5030553;28;20025;-46
2022/04/03 08:55:26;;;;;;;15.23;7.35;;;;;;;;;;5033420;28;20028;-50
2022/04/03 08:57:53;;;;;;;9.82;6.25;;;;;;;;;;5046324;28;20036;-50
2022/04/03 09:00:19;;;;;;;11.25;6.25;;;;;;;;;;5038362;28;20536;-48
2022/04/03 09:02:46;;;;;;;9.95;6.75;;;;;;;;;;5029199;28;20405;-45
2022/04/03 09:05:12;;;;;;;9.00;5.68;;;;;;;;;;5028559;28;20034;-50
2022/04/03 09:07:39;;;;;;;9.48;5.80;;;;;;;;;;5028846;28;20034;-51
2022/04/03 09:10:17;;;;;;;7.43;5.22;;;;;;;;;;5029088;28;20034;-47
2022/04/03 09:12:50;;;;;;;9.00;5.80;;;;;;;;;;5029245;28;20033;-48
2022/04/03 09:15:20;;;;;;;8.73;5.03;;;;;;;;;;5028793;28;20032;-47
2022/04/03 09:17:49;;;;;;;19.80;9.10;;;;;;;;;;5028674;28;20029;-49
2022/04/03 09:20:19;;;;;;;15.95;8.20;;;;;;;;;;5038933;28;20021;-47
2022/04/03 09:22:49;;;;;;;16.85;9.90;;;;;;;;;;5048741;28;20029;-50
2022/04/03 09:25:16;;;;;;;13.63;8.13;;;;;;;;;;5048232;28;20029;-49
2022/04/03 09:27:50;;;;;;;13.43;7.70;;;;;;;;;;5047069;28;20021;-47
2022/04/03 09:30:17;;;;;;;14.18;8.65;;;;;;;;;;5048165;28;20026;-47
2022/04/03 09:32:47;;;;;;;12.45;7.70;;;;;;;;;;5048312;28;20401;-48
2022/04/03 09:35:14;;;;;;;11.45;7.75;;;;;;;;;;5047817;28;20037;-47
2022/04/03 09:37:40;;;;;;;10.07;6.78;;;;;;;;;;5033569;28;20441;-47
2022/04/03 09:40:07;;;;;;;9.60;6.30;;;;;;;;;;5032468;28;20033;-48
2022/04/03 09:42:33;;;;;;;9.57;6.22;;;;;;;;;;5031256;28;20040;-47
2022/04/03 09:44:59;;;;;;;7.32;5.50;;;;;;;;;;5028155;28;20036;-48
2022/04/03 09:47:26;;;;;;;6.32;4.93;;;;;;;;;;5028140;28;20136;-47
2022/04/03 09:50:02;;;;;;;6.40;4.78;;;;;;;;;;5036531;28;20035;-49
2022/04/03 09:52:33;;;;;;;7.80;5.20;;;;;;;;;;5047927;28;20021;-46
2022/04/03 09:54:59;;;;;;;6.95;5.18;;;;;;;;;;5047680;28;20044;-47
2022/04/03 09:57:25;;;;;;;5.90;4.65;;;;;;;;;;5028625;28;20033;-50
2022/04/03 09:59:53;;;;;;;6.57;4.30;;;;;;;;;;5028802;28;20120;-49
2022/04/03 10:02:19;;;;;;;4.78;4.05;;;;;;;;;;5028205;28;20068;-48
2022/04/03 10:04:46;;;;;;;5.72;4.45;;;;;;;;;;5029793;28;20423;-47
2022/04/03 10:07:13;;;;;;;4.18;3.60;;;;;;;;;;5047357;28;20504;-46
2022/04/03 10:09:46;;;;;;;3.75;3.30;;;;;;;;;;5047714;28;20435;-47
2022/04/03 10:12:19;;;;;;;4.82;3.85;;;;;;;;;;5047290;28;20029;-46
2022/04/03 10:14:46;;;;;;;4.28;3.75;;;;;;;;;;5047393;28;20029;-46
2022/04/03 10:17:15;;;;;;;4.80;3.65;;;;;;;;;;5034802;28;20029;-48
2022/04/03 10:19:41;;;;;;;4.47;3.55;;;;;;;;;;5027598;28;20033;-46
2022/04/03 10:22:09;;;;;;;5.38;3.88;;;;;;;;;;5039385;28;20024;-47
2022/04/03 10:24:36;;;;;;;4.15;3.50;;;;;;;;;;5045663;28;20488;-47
2022/04/03 10:27:14;;;;;;;4.63;4.00;;;;;;;;;;5044247;28;20021;-47
2022/04/03 10:29:41;;;;;;;4.60;3.90;;;;;;;;;;5045333;28;20033;-47
2022/04/03 10:32:07;;;;;;;4.70;3.40;;;;;;;;;;5046156;28;20029;-50
2022/04/03 10:34:47;;;;;;;5.22;4.13;;;;;;;;;;5045540;28;20435;-49
2022/04/03 10:37:27;;;;;;;4.72;3.88;;;;;;;;;;5041313;28;20463;-47
2022/04/03 10:39:54;;;;;;;4.80;4.15;;;;;;;;;;5043369;28;20035;-48
2022/04/03 10:42:25;;;;;;;6.80;5.50;;;;;;;;;;5046303;28;20575;-49
2022/04/03 10:45:10;;;;;;;8.70;5.38;;;;;;;;;;5046524;28;20098;-48
2022/04/03 10:47:36;;;;;;;6.03;4.90;;;;;;;;;;5044928;28;20025;-46
2022/04/03 10:50:04;;;;;;;4.68;4.22;;;;;;;;;;5049611;28;20024;-48
2022/04/03 10:52:36;;;;;;;4.85;3.75;;;;;;;;;;5044643;28;20025;-46
2022/04/03 10:55:11;;;;;;;5.53;4.40;;;;;;;;;;5044652;28;20082;-47
2022/04/03 10:57:44;;;;;;;4.95;4.28;;;;;;;;;;5034853;28;20040;-46
2022/04/03 11:00:13;;;;;;;4.93;3.90;;;;;;;;;;5040613;28;20048;-50
2022/04/03 11:02:50;;;;;;;5.30;3.75;;;;;;;;;;5043217;28;20063;-48
2022/04/03 11:05:25;;;;;;;4.22;3.38;;;;;;;;;;5043128;28;20112;-49
2022/04/03 11:07:54;;;;;;;4.07;3.58;;;;;;;;;;5045229;28;20021;-49
2022/04/03 11:10:40;;;;;;;4.47;3.53;;;;;;;;;;5044531;28;20032;-49
2022/04/03 11:13:09;;;;;;;4.82;4.10;;;;;;;;;;5043368;28;20035;-49
2022/04/03 11:15:50;;;;;;;4.60;3.47;;;;;;;;;;5043043;28;20024;-48
2022/04/03 11:18:27;;;;;;;4.53;3.67;;;;;;;;;;5044112;28;20102;-48
2022/04/03 11:21:13;;;;;;;5.22;4.07;;;;;;;;;;5045116;28;20071;-51
2022/04/03 11:23:59;;;;;;;4.53;3.78;;;;;;;;;;5044355;28;20555;-49
2022/04/03 11:26:25;;;;;;;3.88;3.30;;;;;;;;;;5043751;28;20021;-50
2022/04/03 11:28:52;;;;;;;4.50;3.88;;;;;;;;;;5043377;28;20029;-49
2022/04/03 11:31:19;;;;;;;4.22;3.83;;;;;;;;;;5043901;28;20488;-52
2022/04/03 11:33:47;;;;;;;3.90;3.15;;;;;;;;;;5044650;28;20079;-47
2022/04/03 11:36:14;;;;;;;3.53;3.13;;;;;;;;;;5043771;28;20052;-46
2022/04/03 11:38:40;;;;;;;3.78;3.25;;;;;;;;;;5044315;28;20492;-48
2022/04/03 11:41:10;;;;;;;3.60;2.92;;;;;;;;;;5043827;28;20056;-47
2022/04/03 11:43:36;;;;;;;3.30;3.00;;;;;;;;;;5041767;28;20036;-48
2022/04/03 11:46:03;;;;;;;3.80;3.03;;;;;;;;;;5043155;28;20195;-47
2022/04/03 11:48:33;;;;;;;3.95;3.35;;;;;;;;;;5039573;28;20072;-47
2022/04/03 11:51:13;;;;;;;3.63;2.95;;;;;;;;;;5041666;28;20111;-46
2022/04/03 11:53:40;;;;;;;3.17;2.88;;;;;;;;;;5037121;28;20303;-47
2022/04/03 11:56:08;;;;;;;3.75;3.33;;;;;;;;;;5041760;28;20024;-48
2022/04/03 11:58:37;;;;;;;3.58;2.70;;;;;;;;;;5033405;28;20041;-48
2022/04/03 12:01:03;;;;;;;4.85;3.60;;;;;;;;;;5037903;28;20502;-47
2022/04/03 12:03:30;;;;;;;5.63;4.43;;;;;;;;;;5040497;28;20041;-51
2022/04/03 12:06:11;;;;;;;5.10;4.25;;;;;;;;;;5040280;28;20025;-47
2022/04/03 12:08:41;;;;;;;3.53;3.15;;;;;;;;;;5040251;28;20488;-49
2022/04/03 12:11:26;;;;;;;4.50;3.65;;;;;;;;;;5042507;28;20025;-48
2022/04/03 12:13:53;;;;;;;4.05;3.40;;;;;;;;;;5042585;28;20527;-48
2022/04/03 12:16:23;;;;;;;4.43;3.83;;;;;;;;;;5041455;28;20029;-50
2022/04/03 12:18:54;;;;;;;4.80;3.70;;;;;;;;;;5042434;28;20041;-49
2022/04/03 12:21:21;;;;;;;3.40;2.92;;;;;;;;;;5043022;28;20172;-47
2022/04/03 12:24:16;;;;;;;4.22;3.55;;;;;;;;;;5040828;28;20088;-49
2022/04/03 12:26:57;;;;;;;3.78;3.10;;;;;;;;;;5030030;28;20037;-50
2022/04/03 12:29:24;;;;;;;4.35;3.47;;;;;;;;;;5041332;28;20028;-49
2022/04/03 12:31:58;;;;;;;3.70;2.88;;;;;;;;;;5039603;28;20025;-51
2022/04/03 12:34:24;;;;;;;4.55;3.20;;;;;;;;;;5035684;28;20543;-51
2022/04/03 12:36:52;;;;;;;3.50;2.80;;;;;;;;;;5042774;28;20562;-49
2022/04/03 12:39:32;;;;;;;11.70;5.45;;;;;;;;;;5039041;28;20060;-48
2022/04/03 12:42:11;;;;;;;13.77;7.32;;;;;;;;;;5040849;28;20427;-49
2022/04/03 12:44:44;;;;;;;13.18;6.35;;;;;;;;;;5036779;28;20061;-49
2022/04/03 12:47:14;;;;;;;10.93;5.60;;;;;;;;;;5040333;28;20033;-47
2022/04/03 12:49:41;;;;;;;9.80;5.35;;;;;;;;;;5042505;28;20029;-49
2022/04/03 12:52:07;;;;;;;12.07;6.05;;;;;;;;;;5042607;28;20069;-50
2022/04/03 12:54:40;;;;;;;10.13;5.15;;;;;;;;;;5040826;28;20037;-50
2022/04/03 13:00:06;;;;;;;7.55;4.70;;;;;;;;;;5031063;28;20048;-49
2022/04/03 13:02:39;;;;;;;7.97;4.07;;;;;;;;;;5038152;28;20045;-51
2022/04/03 13:05:05;;;;;;;5.93;3.72;;;;;;;;;;5043995;28;20024;-47
2022/04/03 13:07:31;;;;;;;5.85;3.53;;;;;;;;;;5043593;28;20125;-48
2022/04/03 13:09:57;;;;;;;5.00;3.22;;;;;;;;;;5042479;28;20040;-51
2022/04/03 13:12:29;;;;;;;3.33;2.63;;;;;;;;;;5042115;28;20036;-47
2022/04/03 13:14:59;;;;;;;3.63;2.80;;;;;;;;;;5041945;28;20040;-50
2022/04/03 13:17:26;;;;;;;3.15;2.47;;;;;;;;;;5038186;28;20037;-48
2022/04/03 13:19:53;;;;;;;4.32;2.88;;;;;;;;;;5041862;28;20032;-48
2022/04/03 13:22:19;;;;;;;2.83;2.30;;;;;;;;;;5046362;28;20124;-46
2022/04/03 13:24:45;;;;;;;2.63;2.42;;;;;;;;;;5044016;28;20129;-51
2022/04/03 13:27:11;;;;;;;2.40;2.05;;;;;;;;;;5044153;28;20031;-47
2022/04/03 13:29:38;;;;;;;2.78;2.40;;;;;;;;;;5028018;28;20053;-47
2022/04/03 13:32:05;;;;;;;2.60;1.98;;;;;;;;;;5029399;28;20017;-46
2022/04/03 13:34:31;;;;;;;2.88;2.28;;;;;;;;;;5030301;28;20033;-49
2022/04/03 13:36:57;;;;;;;2.88;2.30;;;;;;;;;;5029503;28;21662;-48
2022/04/03 13:39:24;;;;;;;2.90;2.60;;;;;;;;;;5030166;28;20029;-46
2022/04/03 13:41:55;;;;;;;2.85;2.35;;;;;;;;;;5029000;28;20026;-47
2022/04/03 13:44:22;;;;;;;2.53;2.22;;;;;;;;;;5044821;28;20036;-47
2022/04/03 13:46:49;;;;;;;2.67;2.38;;;;;;;;;;5046792;28;20112;-47
2022/04/03 13:49:15;;;;;;;2.70;2.20;;;;;;;;;;5046046;28;20397;-47
2022/04/03 13:51:42;;;;;;;2.45;2.25;;;;;;;;;;5047785;28;20029;-49
2022/04/03 13:54:08;;;;;;;3.05;2.00;;;;;;;;;;5034393;28;20064;-47
2022/04/03 13:56:36;;;;;;;2.17;1.98;;;;;;;;;;5029812;28;20033;-49
2022/04/03 13:59:03;;;;;;;2.35;2.03;;;;;;;;;;5028661;28;20417;-48
2022/04/03 14:01:30;;;;;;;2.40;2.20;;;;;;;;;;5028826;28;20064;-49
2022/04/03 14:03:56;;;;;;;2.30;2.10;;;;;;;;;;5032012;28;20151;-48
2022/04/03 14:06:22;;;;;;;2.65;2.38;;;;;;;;;;5035098;28;20021;-47
2022/04/03 14:08:48;;;;;;;3.17;2.50;;;;;;;;;;5032119;28;20025;-47
2022/04/03 14:11:17;;;;;;;2.42;2.15;;;;;;;;;;5032191;28;20025;-46
2022/04/03 14:13:43;;;;;;;2.50;2.20;;;;;;;;;;5035177;28;20099;-49
2022/04/03 14:16:09;;;;;;;2.90;2.60;;;;;;;;;;5032241;28;20064;-47
2022/04/03 14:18:36;;;;;;;3.42;2.83;;;;;;;;;;5040608;28;20060;-48
2022/04/03 14:21:02;;;;;;;2.55;2.35;;;;;;;;;;5038797;28;20025;-49
2022/04/03 14:23:32;;;;;;;2.60;2.25;;;;;;;;;;5031382;28;20030;-47
2022/04/03 14:26:02;;;;;;;2.60;2.40;;;;;;;;;;5035200;28;20028;-50
2022/04/03 14:28:28;;;;;;;2.40;2.20;;;;;;;;;;5030989;28;20026;-48
2022/04/03 14:30:55;;;;;;;2.47;2.28;;;;;;;;;;5034029;28;20021;-49
2022/04/03 14:33:21;;;;;;;3.45;2.83;;;;;;;;;;5039221;28;20064;-48
2022/04/03 14:35:47;;;;;;;3.70;2.58;;;;;;;;;;5029754;28;20037;-48
2022/04/03 14:38:13;;;;;;;3.17;2.80;;;;;;;;;;5028015;28;20415;-48
2022/04/03 14:40:40;;;;;;;3.22;2.90;;;;;;;;;;5032518;28;20033;-46
2022/04/03 14:43:06;;;;;;;3.05;2.58;;;;;;;;;;5035480;28;20048;-50
2022/04/03 14:45:32;;;;;;;3.13;2.33;;;;;;;;;;5038262;28;20033;-48